Time;durP1;ratioP1;P1;durP2;ratioP2;P2;SDS_P1;SDS_P2;PMS_P1;PMS_P2;Temp;Humidity;BMP_temperature;BMP_pressure;BME280_temperature;BME280_humidity;BME280_pressure;Samples;Min_cycle;Max_cycle;Signal;HPM_P1;HPM_P2
2022/08/09 00:00:55;;;;;;;0.80;0.50;;;21.30;99.90;;;;;;5117620;28;20949;-74
2022/08/09 00:03:22;;;;;;;0.67;0.40;;;21.30;99.90;;;;;;5118037;28;20491;-74
2022/08/09 00:05:49;;;;;;;2.50;0.57;;;21.20;99.90;;;;;;5117281;28;20510;-75
2022/08/09 00:08:16;;;;;;;0.70;0.50;;;21.20;99.90;;;;;;5117627;28;20480;-75
2022/08/09 00:10:43;;;;;;;0.80;0.70;;;21.10;99.90;;;;;;5117622;28;20838;-72
2022/08/09 00:13:10;;;;;;;0.60;0.50;;;21.10;99.90;;;;;;5117407;28;20567;-72
2022/08/09 00:15:37;;;;;;;0.70;0.60;;;21.10;99.90;;;;;;5117364;28;20548;-73
2022/08/09 00:18:06;;;;;;;0.80;0.50;;;21.10;99.90;;;;;;5117245;28;20445;-74
2022/08/09 00:20:33;;;;;;;0.60;0.50;;;21.20;99.90;;;;;;5117547;28;20506;-74
2022/08/09 00:22:59;;;;;;;0.90;0.50;;;21.20;99.90;;;;;;5117817;28;20559;-74
2022/08/09 00:25:26;;;;;;;0.63;0.50;;;21.10;99.90;;;;;;5117123;28;20480;-74
2022/08/09 00:27:53;;;;;;;0.60;0.50;;;21.10;99.90;;;;;;5117327;28;20445;-74
2022/08/09 00:30:21;;;;;;;0.60;0.50;;;21.00;99.90;;;;;;5117017;28;20488;-74
2022/08/09 00:32:48;;;;;;;5.60;0.50;;;21.00;99.90;;;;;;5116624;28;20451;-73
2022/08/09 00:35:16;;;;;;;0.73;0.60;;;21.00;99.90;;;;;;5117175;28;20452;-73
2022/08/09 00:37:43;;;;;;;1.27;0.60;;;21.00;99.90;;;;;;5117072;28;20955;-73
2022/08/09 00:40:11;;;;;;;1.30;0.70;;;21.00;99.90;;;;;;5116997;28;20449;-74
2022/08/09 00:42:38;;;;;;;0.70;0.57;;;21.10;99.90;;;;;;5117663;28;20468;-73
2022/08/09 00:45:06;;;;;;;0.70;0.50;;;21.10;99.90;;;;;;5116988;28;20492;-73
2022/08/09 00:47:33;;;;;;;0.83;0.60;;;21.20;99.90;;;;;;5116866;28;20803;-74
2022/08/09 00:50:00;;;;;;;1.10;0.40;;;21.30;99.90;;;;;;5116697;28;20524;-74
2022/08/09 00:52:29;;;;;;;0.70;0.50;;;21.30;99.90;;;;;;5116899;28;20961;-73
2022/08/09 00:54:56;;;;;;;0.77;0.50;;;21.20;99.90;;;;;;5117013;28;20763;-74
2022/08/09 00:57:23;;;;;;;0.60;0.43;;;21.10;99.90;;;;;;5116959;28;20572;-74
2022/08/09 00:59:50;;;;;;;0.70;0.50;;;21.10;99.90;;;;;;5116722;28;20488;-74
2022/08/09 01:02:20;;;;;;;1.00;0.50;;;21.00;99.90;;;;;;5116761;28;20878;-73
2022/08/09 01:04:53;;;;;;;0.90;0.50;;;20.90;99.90;;;;;;5116228;28;20488;-72
2022/08/09 01:07:30;;;;;;;0.70;0.50;;;20.80;99.90;;;;;;5116664;28;20510;-73
2022/08/09 01:10:03;;;;;;;0.60;0.50;;;20.70;99.90;;;;;;5116448;28;20484;-72
2022/08/09 01:12:37;;;;;;;0.60;0.50;;;20.70;99.90;;;;;;5116773;28;20938;-73
2022/08/09 01:15:06;;;;;;;0.80;0.57;;;20.70;99.90;;;;;;5116446;28;20480;-73
2022/08/09 01:17:39;;;;;;;0.80;0.60;;;20.60;99.90;;;;;;5116742;28;20452;-73
2022/08/09 01:20:09;;;;;;;0.80;0.50;;;20.60;99.90;;;;;;5120470;28;20505;-72
2022/08/09 01:22:57;;;;;;;0.67;0.50;;;20.60;99.90;;;;;;5120687;28;20501;-73
2022/08/09 01:25:42;;;;;;;0.67;0.53;;;20.60;99.90;;;;;;5120646;28;20565;-73
2022/08/09 01:28:12;;;;;;;1.10;0.60;;;20.50;99.90;;;;;;5120673;28;20452;-72
2022/08/09 01:30:41;;;;;;;1.27;0.60;;;20.50;99.90;;;;;;5120564;28;20848;-72
2022/08/09 01:33:10;;;;;;;0.70;0.50;;;20.50;99.90;;;;;;5120778;28;20469;-72
2022/08/09 01:35:45;;;;;;;0.50;0.40;;;20.60;1.00;;;;;;5120120;28;20457;-72
2022/08/09 01:38:15;;;;;;;0.70;0.50;;;20.50;1.00;;;;;;5120833;28;20505;-72
2022/08/09 01:40:46;;;;;;;0.50;0.50;;;20.30;1.00;;;;;;5120051;28;20546;-72
2022/08/09 01:43:17;;;;;;;0.80;0.40;;;20.30;1.00;;;;;;5120647;28;20475;-74
2022/08/09 01:45:46;;;;;;;0.50;0.40;;;20.30;1.00;;;;;;5120658;28;20476;-74
2022/08/09 01:48:15;;;;;;;0.70;0.60;;;20.30;1.00;;;;;;5120589;28;20528;-73
2022/08/09 01:50:44;;;;;;;1.27;0.53;;;20.30;1.00;;;;;;5120053;28;20484;-73
2022/08/09 01:53:12;;;;;;;0.70;0.50;;;20.20;1.00;;;;;;5120297;28;20480;-74
2022/08/09 01:55:40;;;;;;;0.70;0.50;;;20.20;1.00;;;;;;5120676;28;20495;-74
2022/08/09 01:58:08;;;;;;;0.50;0.40;;;20.20;1.00;;;;;;5120365;28;20527;-73
2022/08/09 02:00:37;;;;;;;0.63;0.60;;;20.20;1.00;;;;;;5120408;28;20484;-73
2022/08/09 02:03:06;;;;;;;0.73;0.60;;;20.30;1.00;;;;;;5119711;28;20440;-74
2022/08/09 02:05:34;;;;;;;0.80;0.50;;;20.20;1.00;;;;;;5120432;28;20794;-73
2022/08/09 02:08:04;;;;;;;1.90;0.50;;;20.10;1.00;;;;;;5120344;28;20872;-74
2022/08/09 02:10:35;;;;;;;0.80;0.57;;;20.00;1.00;;;;;;5120037;28;20480;-74
2022/08/09 02:13:06;;;;;;;3.03;1.83;;;20.00;1.00;;;;;;5119236;28;20500;-74
2022/08/09 02:15:37;;;;;;;0.80;0.60;;;20.00;1.00;;;;;;5118936;28;20472;-74
2022/08/09 02:18:06;;;;;;;0.70;0.53;;;19.90;1.00;;;;;;5118555;28;20809;-75
2022/08/09 02:20:36;;;;;;;0.67;0.60;;;19.90;1.00;;;;;;5118532;28;20908;-74
2022/08/09 02:23:07;;;;;;;7.20;0.70;;;19.90;1.00;;;;;;5118433;28;20935;-72
2022/08/09 02:25:37;;;;;;;0.70;0.50;;;19.90;1.00;;;;;;5118342;28;20449;-74
2022/08/09 02:28:10;;;;;;;0.80;0.70;;;19.80;1.00;;;;;;5118373;28;20495;-73
2022/08/09 02:30:47;;;;;;;0.80;0.60;;;19.80;1.00;;;;;;5117440;28;20480;-75
2022/08/09 02:33:20;;;;;;;1.17;0.60;;;19.70;1.00;;;;;;5118225;28;20540;-75
2022/08/09 02:35:48;;;;;;;0.70;0.50;;;19.70;1.00;;;;;;5118500;28;20453;-75
2022/08/09 02:38:21;;;;;;;0.60;0.43;;;19.60;1.00;;;;;;5118177;28;20476;-74
2022/08/09 02:40:49;;;;;;;0.60;0.50;;;19.50;1.00;;;;;;5118415;28;20831;-74
2022/08/09 02:43:18;;;;;;;1.13;0.60;;;19.30;1.00;;;;;;5118375;28;20893;-74
2022/08/09 02:45:46;;;;;;;1.03;0.40;;;19.20;1.00;;;;;;5118074;28;20484;-74
2022/08/09 02:48:17;;;;;;;0.67;0.60;;;19.20;1.00;;;;;;5118410;28;20463;-74
2022/08/09 02:50:48;;;;;;;0.80;0.50;;;19.30;1.00;;;;;;5117882;28;20495;-74
2022/08/09 02:53:22;;;;;;;0.67;0.40;;;19.30;1.00;;;;;;5118336;28;20906;-73
2022/08/09 02:55:49;;;;;;;0.80;0.50;;;19.50;1.00;;;;;;5118139;28;20461;-73
2022/08/09 02:58:18;;;;;;;1.20;0.50;;;19.40;1.00;;;;;;5118085;28;20445;-73
2022/08/09 03:00:46;;;;;;;0.60;0.50;;;19.40;1.00;;;;;;5117525;28;20449;-73
2022/08/09 03:03:13;;;;;;;0.80;0.50;;;19.30;1.00;;;;;;5117879;28;20814;-73
2022/08/09 03:05:43;;;;;;;1.00;0.70;;;19.30;1.00;;;;;;5118032;28;20456;-73
2022/08/09 03:08:13;;;;;;;0.93;0.63;;;19.30;1.00;;;;;;5118039;28;20546;-73
2022/08/09 03:10:41;;;;;;;0.70;0.47;;;19.30;1.00;;;;;;5117619;28;20576;-73
2022/08/09 03:13:09;;;;;;;0.80;0.60;;;19.30;1.00;;;;;;5077727;28;1158873;-73
2022/08/09 03:15:37;;;;;;;1.10;0.60;;;19.40;1.00;;;;;;5118557;28;20203;-74
2022/08/09 03:18:05;;;;;;;1.23;0.60;;;19.30;1.00;;;;;;5118985;28;20440;-73
2022/08/09 03:20:32;;;;;;;0.70;0.50;;;19.20;1.00;;;;;;5118414;28;20732;-73
2022/08/09 03:23:01;;;;;;;0.93;0.50;;;19.20;1.00;;;;;;5118549;28;20465;-73
2022/08/09 03:25:30;;;;;;;0.60;0.43;;;19.20;1.00;;;;;;5118146;28;20453;-75
2022/08/09 03:27:59;;;;;;;0.60;0.43;;;19.10;1.00;;;;;;5118505;28;20887;-73
2022/08/09 03:30:27;;;;;;;0.70;0.60;;;19.10;1.00;;;;;;5118265;28;20460;-73
2022/08/09 03:32:56;;;;;;;0.80;0.50;;;19.10;1.00;;;;;;5118176;28;20533;-74
2022/08/09 03:35:23;;;;;;;1.00;0.70;;;19.10;1.00;;;;;;5118282;28;20933;-74
2022/08/09 03:37:50;;;;;;;0.60;0.50;;;19.00;1.00;;;;;;5117960;28;20480;-73
2022/08/09 03:40:18;;;;;;;0.80;0.60;;;18.90;1.00;;;;;;5116481;28;20880;-73
2022/08/09 03:42:46;;;;;;;0.60;0.50;;;18.90;1.00;;;;;;5116686;28;20493;-73
2022/08/09 03:45:12;;;;;;;1.73;0.50;;;18.90;1.00;;;;;;5116533;28;20453;-73
2022/08/09 03:47:39;;;;;;;0.73;0.50;;;19.00;1.00;;;;;;5116832;28;20479;-74
2022/08/09 03:50:08;;;;;;;0.70;0.53;;;18.90;1.00;;;;;;5116466;28;20480;-73
2022/08/09 03:52:37;;;;;;;0.90;0.60;;;18.90;1.00;;;;;;5116411;28;20495;-73
2022/08/09 03:55:05;;;;;;;0.90;0.60;;;19.00;1.00;;;;;;5117852;28;20452;-73
2022/08/09 03:57:33;;;;;;;0.83;0.70;;;19.00;1.00;;;;;;5117893;28;20899;-73
2022/08/09 04:00:00;;;;;;;0.73;0.60;;;19.00;1.00;;;;;;5117622;28;20488;-73
2022/08/09 04:02:30;;;;;;;0.60;0.57;;;19.00;1.00;;;;;;5116850;28;20551;-74
2022/08/09 04:04:59;;;;;;;0.90;0.60;;;19.00;1.00;;;;;;5116582;28;20492;-73
2022/08/09 04:07:28;;;;;;;2.63;0.60;;;19.00;1.00;;;;;;5116497;28;20517;-73
2022/08/09 04:09:54;;;;;;;1.90;0.70;;;19.00;1.00;;;;;;5116012;28;20507;-73
2022/08/09 04:12:41;;;;;;;0.83;0.57;;;19.00;1.00;;;;;;5116994;28;20830;-74
2022/08/09 04:15:09;;;;;;;0.80;0.60;;;18.90;1.00;;;;;;5116770;28;20482;-73
2022/08/09 04:17:36;;;;;;;2.97;0.60;;;18.90;1.00;;;;;;5117367;28;20798;-72
2022/08/09 04:20:03;;;;;;;0.80;0.60;;;19.00;1.00;;;;;;5117095;28;20488;-72
2022/08/09 04:22:30;;;;;;;0.70;0.60;;;19.00;1.00;;;;;;5116842;28;20505;-72
2022/08/09 04:24:57;;;;;;;1.07;0.67;;;18.90;1.00;;;;;;5115561;28;20514;-73
2022/08/09 04:27:24;;;;;;;1.23;0.70;;;18.90;1.00;;;;;;5116309;28;20483;-72
2022/08/09 04:29:52;;;;;;;1.93;0.70;;;18.90;1.00;;;;;;5115175;28;20809;-73
2022/08/09 04:32:19;;;;;;;0.80;0.67;;;18.90;1.00;;;;;;5115500;28;20592;-72
2022/08/09 04:34:46;;;;;;;0.80;0.60;;;18.90;1.00;;;;;;5116208;28;20892;-73
2022/08/09 04:37:13;;;;;;;0.80;0.70;;;18.90;1.00;;;;;;5116136;28;20448;-72
2022/08/09 04:39:40;;;;;;;0.70;0.60;;;18.90;1.00;;;;;;5116688;28;20814;-73
2022/08/09 04:42:07;;;;;;;0.90;0.70;;;18.90;1.00;;;;;;5116801;28;20848;-72
2022/08/09 04:44:34;;;;;;;1.03;0.70;;;18.90;1.00;;;;;;5116749;28;20492;-73
2022/08/09 04:47:03;;;;;;;1.30;0.60;;;19.00;1.00;;;;;;5116831;28;20448;-73
2022/08/09 04:49:36;;;;;;;1.27;0.63;;;19.00;1.00;;;;;;5116713;28;20498;-73
2022/08/09 04:52:03;;;;;;;1.27;0.60;;;19.10;1.00;;;;;;5116725;28;20481;-72
2022/08/09 04:54:30;;;;;;;0.70;0.60;;;19.10;1.00;;;;;;5115613;28;20453;-72
2022/08/09 04:56:57;;;;;;;1.27;0.60;;;19.10;1.00;;;;;;5116235;28;20531;-72
2022/08/09 04:59:25;;;;;;;0.70;0.60;;;19.10;1.00;;;;;;5116301;28;20506;-73
2022/08/09 05:01:52;;;;;;;2.50;0.60;;;19.00;1.00;;;;;;5116581;28;20448;-72
2022/08/09 05:04:20;;;;;;;0.97;0.70;;;18.90;1.00;;;;;;5116661;28;20551;-73
2022/08/09 05:06:47;;;;;;;1.00;0.60;;;19.00;1.00;;;;;;5116456;28;20456;-73
2022/08/09 05:09:14;;;;;;;0.83;0.60;;;19.20;1.00;;;;;;5115976;28;20492;-73
2022/08/09 05:11:41;;;;;;;0.70;0.60;;;19.50;1.00;;;;;;5115628;28;20489;-73
2022/08/09 05:14:08;;;;;;;1.30;0.70;;;19.50;1.00;;;;;;5115088;28;20974;-73
2022/08/09 05:16:35;;;;;;;0.70;0.50;;;19.70;1.00;;;;;;5116271;28;20487;-73
2022/08/09 05:19:02;;;;;;;0.70;0.60;;;19.80;1.00;;;;;;5115809;28;20472;-72
2022/08/09 05:21:30;;;;;;;0.80;0.60;;;19.90;1.00;;;;;;5115504;28;20501;-73
2022/08/09 05:23:57;;;;;;;0.87;0.67;;;20.00;1.00;;;;;;5115470;28;20487;-73
2022/08/09 05:26:24;;;;;;;1.10;0.60;;;20.10;1.00;;;;;;5115216;28;20896;-72
2022/08/09 05:28:51;;;;;;;3.43;0.60;;;20.20;1.00;;;;;;5115326;28;20452;-73
2022/08/09 05:31:18;;;;;;;0.80;0.60;;;20.40;1.00;;;;;;5115692;28;20537;-72
2022/08/09 05:33:45;;;;;;;1.30;0.70;;;20.40;1.00;;;;;;5116699;28;20475;-72
2022/08/09 05:36:12;;;;;;;0.77;0.60;;;20.40;1.00;;;;;;5114065;28;20488;-71
2022/08/09 05:38:40;;;;;;;2.60;0.80;;;20.40;1.00;;;;;;5113710;28;20484;-74
2022/08/09 05:41:07;;;;;;;1.50;0.70;;;20.50;1.00;;;;;;5114089;28;20492;-73
2022/08/09 05:43:35;;;;;;;0.80;0.67;;;20.50;1.00;;;;;;5114105;28;20472;-73
2022/08/09 05:46:02;;;;;;;0.90;0.60;;;20.50;1.00;;;;;;5113903;28;20453;-73
2022/08/09 05:48:29;;;;;;;1.10;0.70;;;20.50;1.00;;;;;;5113451;28;20876;-74
2022/08/09 05:50:56;;;;;;;1.00;0.80;;;20.30;1.00;;;;;;5113261;28;20483;-74
2022/08/09 05:53:23;;;;;;;0.80;0.70;;;20.30;1.00;;;;;;5115299;28;20455;-74
2022/08/09 05:55:52;;;;;;;1.00;0.70;;;20.30;1.00;;;;;;5115854;28;20969;-74
2022/08/09 05:58:19;;;;;;;2.50;0.70;;;20.10;1.00;;;;;;5115458;28;20487;-75
2022/08/09 06:00:46;;;;;;;0.93;0.80;;;20.10;1.00;;;;;;5114623;28;20857;-73
2022/08/09 06:03:13;;;;;;;0.90;0.70;;;20.10;1.00;;;;;;5115355;28;20472;-72
2022/08/09 06:05:40;;;;;;;1.07;0.80;;;20.10;1.00;;;;;;5117865;28;20505;-73
2022/08/09 06:08:07;;;;;;;1.47;0.70;;;20.20;1.00;;;;;;5119624;28;20523;-73
2022/08/09 06:10:40;;;;;;;1.10;0.80;;;20.20;1.00;;;;;;5119622;28;20803;-74
2022/08/09 06:13:10;;;;;;;0.90;0.80;;;20.20;1.00;;;;;;5118694;28;20486;-73
2022/08/09 06:15:37;;;;;;;1.00;0.70;;;20.10;1.00;;;;;;5118352;28;20899;-73
2022/08/09 06:18:05;;;;;;;3.60;0.80;;;20.20;1.00;;;;;;5119251;28;20480;-73
2022/08/09 06:20:32;;;;;;;0.80;0.77;;;20.20;1.00;;;;;;5119081;28;20476;-73
2022/08/09 06:23:00;;;;;;;0.80;0.60;;;20.30;1.00;;;;;;5119148;28;20513;-74
2022/08/09 06:25:34;;;;;;;1.10;0.80;;;20.30;1.00;;;;;;5118690;28;20539;-74
2022/08/09 06:28:06;;;;;;;1.03;0.80;;;20.40;1.00;;;;;;5117994;28;20731;-73
2022/08/09 06:30:35;;;;;;;1.10;1.00;;;20.40;1.00;;;;;;5119025;28;20452;-73
2022/08/09 06:33:02;;;;;;;1.10;0.80;;;20.50;1.00;;;;;;5118514;28;20552;-74
2022/08/09 06:35:29;;;;;;;1.47;1.00;;;20.50;1.00;;;;;;5118393;28;20475;-72
2022/08/09 06:37:56;;;;;;;1.30;1.00;;;20.50;1.00;;;;;;5118243;28;20906;-72
2022/08/09 06:40:23;;;;;;;1.10;0.90;;;20.60;1.00;;;;;;5117475;28;20960;-72
2022/08/09 06:42:50;;;;;;;1.83;0.80;;;20.70;1.00;;;;;;5117418;28;20448;-72
2022/08/09 06:45:17;;;;;;;1.17;0.90;;;20.70;1.00;;;;;;5115529;28;21098;-72
2022/08/09 06:47:47;;;;;;;1.47;0.97;;;20.80;1.00;;;;;;5115500;28;20506;-73
2022/08/09 06:50:15;;;;;;;2.60;0.83;;;21.00;1.00;;;;;;5115693;28;20463;-73
2022/08/09 06:52:45;;;;;;;3.47;1.10;;;21.00;1.00;;;;;;5117114;28;20817;-73
2022/08/09 06:55:12;;;;;;;1.97;1.00;;;21.00;1.00;;;;;;5116343;28;20456;-72
2022/08/09 06:57:39;;;;;;;1.30;1.10;;;21.00;1.00;;;;;;5116834;28;20752;-72
2022/08/09 07:00:08;;;;;;;1.27;0.80;;;21.00;1.00;;;;;;5116794;28;20547;-73
2022/08/09 07:02:35;;;;;;;1.80;1.10;;;21.20;1.00;;;;;;5116753;28;20470;-73
2022/08/09 07:05:04;;;;;;;2.30;1.00;;;21.30;1.00;;;;;;5116750;28;20484;-73
2022/08/09 07:07:31;;;;;;;1.20;0.90;;;21.40;1.00;;;;;;5116765;28;20502;-73
2022/08/09 07:09:58;;;;;;;3.80;1.30;;;21.60;1.00;;;;;;5116736;28;20492;-73
2022/08/09 07:12:25;;;;;;;1.50;1.00;;;21.80;1.00;;;;;;5116337;28;20487;-72
2022/08/09 07:14:52;;;;;;;1.43;0.90;;;21.80;1.00;;;;;;5116460;28;20871;-73
2022/08/09 07:17:19;;;;;;;2.17;0.90;;;21.90;1.00;;;;;;5116704;28;20491;-73
2022/08/09 07:19:46;;;;;;;2.30;0.90;;;21.90;1.00;;;;;;5118109;28;20536;-73
2022/08/09 07:22:14;;;;;;;1.50;0.90;;;22.00;1.00;;;;;;5118262;28;20517;-72
2022/08/09 07:24:41;;;;;;;1.30;1.00;;;22.10;1.00;;;;;;5117273;28;20950;-73
2022/08/09 07:27:11;;;;;;;1.70;1.03;;;22.30;1.00;;;;;;5117829;28;20472;-74
2022/08/09 07:29:38;;;;;;;1.43;1.00;;;22.40;1.00;;;;;;5115933;28;20456;-73
2022/08/09 07:32:06;;;;;;;2.23;0.97;;;22.50;1.00;;;;;;5117241;28;20519;-73
2022/08/09 07:34:33;;;;;;;1.97;1.00;;;22.70;1.00;;;;;;5117345;28;20480;-73
2022/08/09 07:37:00;;;;;;;3.70;1.10;;;22.70;1.00;;;;;;5117410;28;20445;-73
2022/08/09 07:39:28;;;;;;;1.43;0.90;;;22.90;1.00;;;;;;5116449;28;20797;-73
2022/08/09 07:41:55;;;;;;;4.07;0.90;;;23.00;1.00;;;;;;5116452;28;20537;-73
2022/08/09 07:44:22;;;;;;;1.90;1.00;;;22.90;1.00;;;;;;5116751;28;20480;-73
2022/08/09 07:46:49;;;;;;;1.63;1.10;;;22.80;1.00;;;;;;5116605;28;20473;-74
2022/08/09 07:49:16;;;;;;;1.30;0.90;;;22.90;1.00;;;;;;5117028;28;20453;-73
2022/08/09 07:51:43;;;;;;;1.93;0.90;;;22.90;1.00;;;;;;5116613;28;20531;-73
2022/08/09 07:54:10;;;;;;;1.10;0.80;;;22.90;1.00;;;;;;5115498;28;20547;-73
2022/08/09 07:56:39;;;;;;;2.20;1.10;;;22.90;1.00;;;;;;5115827;28;20540;-73
2022/08/09 07:59:07;;;;;;;1.30;0.90;;;23.00;1.00;;;;;;5115311;28;20485;-72
2022/08/09 08:01:34;;;;;;;3.00;0.80;;;23.20;1.00;;;;;;5115270;28;20480;-72
2022/08/09 08:04:02;;;;;;;0.97;0.80;;;23.30;1.00;;;;;;5116695;28;20554;-72
2022/08/09 08:06:29;;;;;;;1.70;1.00;;;23.40;1.00;;;;;;5116748;28;20808;-72
2022/08/09 08:08:56;;;;;;;1.20;0.90;;;23.40;1.00;;;;;;5116047;28;20529;-72
2022/08/09 08:11:23;;;;;;;1.13;0.80;;;23.50;1.00;;;;;;5116224;28;20488;-72
2022/08/09 08:13:51;;;;;;;2.20;0.90;;;23.60;1.00;;;;;;5116660;28;20874;-73
2022/08/09 08:16:18;;;;;;;1.07;0.80;;;23.70;1.00;;;;;;5116605;28;20445;-72
2022/08/09 08:18:45;;;;;;;1.87;0.83;;;23.80;1.00;;;;;;5117202;28;20817;-72
2022/08/09 08:21:12;;;;;;;2.73;1.00;;;24.00;1.00;;;;;;5115230;28;20480;-72
2022/08/09 08:23:39;;;;;;;1.50;0.90;;;24.10;1.00;;;;;;5115761;28;20467;-72
2022/08/09 08:26:07;;;;;;;1.00;0.90;;;24.20;1.00;;;;;;5116234;28;20488;-72
2022/08/09 08:28:34;;;;;;;0.80;0.80;;;24.30;1.00;;;;;;5115603;28;20476;-72
2022/08/09 08:31:02;;;;;;;1.07;0.83;;;24.30;1.00;;;;;;5116090;28;20803;-72
2022/08/09 08:33:29;;;;;;;1.00;0.90;;;24.30;1.00;;;;;;5116868;28;21074;-72
2022/08/09 08:35:56;;;;;;;1.47;0.77;;;24.50;1.00;;;;;;5116530;28;20938;-72
2022/08/09 08:38:23;;;;;;;0.83;0.80;;;24.50;1.00;;;;;;5116742;28;20531;-72
2022/08/09 08:40:52;;;;;;;1.03;0.90;;;24.60;1.00;;;;;;5116258;28;20455;-72
2022/08/09 08:43:20;;;;;;;1.00;0.80;;;24.50;1.00;;;;;;5116294;28;20484;-73
2022/08/09 08:45:51;;;;;;;1.00;0.83;;;24.60;1.00;;;;;;5116208;28;20492;-72
2022/08/09 08:48:21;;;;;;;1.00;0.90;;;24.60;1.00;;;;;;5116765;28;20484;-73
2022/08/09 08:50:49;;;;;;;1.00;0.90;;;24.80;1.00;;;;;;5116507;28;20468;-72
2022/08/09 08:53:16;;;;;;;1.00;0.90;;;24.90;1.00;;;;;;5115237;28;20486;-74
2022/08/09 08:55:43;;;;;;;0.80;0.80;;;24.90;1.00;;;;;;5113873;28;20452;-73
2022/08/09 08:58:11;;;;;;;1.00;0.90;;;25.00;1.00;;;;;;5116252;28;20444;-73
2022/08/09 09:00:38;;;;;;;0.97;0.87;;;25.10;1.00;;;;;;5116697;28;20925;-72
2022/08/09 09:03:05;;;;;;;1.00;0.80;;;25.20;1.00;;;;;;5115214;28;20472;-73
2022/08/09 09:05:34;;;;;;;0.90;0.77;;;25.40;1.00;;;;;;5115721;28;20525;-73
2022/08/09 09:08:03;;;;;;;2.50;0.70;;;25.40;1.00;;;;;;5116859;28;20465;-75
2022/08/09 09:10:31;;;;;;;0.70;0.70;;;25.50;1.00;;;;;;5116006;28;20537;-74
2022/08/09 09:12:59;;;;;;;0.93;0.80;;;25.70;1.00;;;;;;5114902;28;20803;-74
2022/08/09 09:15:26;;;;;;;1.63;0.83;;;25.80;1.00;;;;;;5115347;28;20843;-74
2022/08/09 09:17:53;;;;;;;3.87;0.80;;;26.00;1.00;;;;;;5116347;28;20444;-74
2022/08/09 09:20:20;;;;;;;0.70;0.70;;;26.10;1.00;;;;;;5116346;28;20888;-74
2022/08/09 09:22:54;;;;;;;1.50;0.80;;;26.20;1.00;;;;;;5117220;28;20734;-73
2022/08/09 09:25:32;;;;;;;0.80;0.77;;;26.20;1.00;;;;;;5116555;28;20458;-73
2022/08/09 09:27:59;;;;;;;0.70;0.70;;;26.20;1.00;;;;;;5116760;28;20447;-74
2022/08/09 09:30:27;;;;;;;0.80;0.80;;;26.20;1.00;;;;;;5116314;28;20502;-74
2022/08/09 09:33:08;;;;;;;1.00;0.80;;;26.40;1.00;;;;;;5115760;28;20473;-74
2022/08/09 09:35:51;;;;;;;0.90;0.80;;;26.50;1.00;;;;;;5116283;28;20452;-75
2022/08/09 09:38:22;;;;;;;1.00;0.90;;;26.30;1.00;;;;;;5117716;28;20440;-74
2022/08/09 09:40:49;;;;;;;0.90;0.70;;;26.30;1.00;;;;;;5139292;27;20534;-74
2022/08/09 09:43:20;;;;;;;1.47;0.70;;;26.50;1.00;;;;;;5139727;27;20509;-74
2022/08/09 09:45:49;;;;;;;0.80;0.70;;;26.70;1.00;;;;;;5139306;27;20538;-74
2022/08/09 09:48:16;;;;;;;0.80;0.70;;;26.90;1.00;;;;;;5140444;27;20951;-74
2022/08/09 09:50:45;;;;;;;0.80;0.77;;;27.10;1.00;;;;;;5139720;27;20455;-74
2022/08/09 09:53:16;;;;;;;0.70;0.70;;;27.30;1.00;;;;;;5140391;27;20593;-73
2022/08/09 09:55:58;;;;;;;5.50;0.70;;;27.50;1.00;;;;;;5140089;27;20458;-73
2022/08/09 09:58:42;;;;;;;0.90;0.70;;;27.50;1.00;;;;;;5139195;27;20454;-73
2022/08/09 10:01:18;;;;;;;0.80;0.70;;;27.50;1.00;;;;;;5139196;27;20458;-73
2022/08/09 10:03:46;;;;;;;0.80;0.63;;;27.70;1.00;;;;;;5139234;27;20875;-73
2022/08/09 10:06:13;;;;;;;0.80;0.60;;;27.80;1.00;;;;;;5140053;27;20451;-74
2022/08/09 10:08:41;;;;;;;0.70;0.70;;;27.80;1.00;;;;;;5138677;27;20531;-74
2022/08/09 10:11:21;;;;;;;1.83;0.67;;;28.10;1.00;;;;;;5140147;27;21038;-73
2022/08/09 10:13:49;;;;;;;0.83;0.70;;;28.30;1.00;;;;;;5117803;28;20533;-74
2022/08/09 10:16:26;;;;;;;0.80;0.70;;;28.20;1.00;;;;;;5116459;28;21222;-74
2022/08/09 10:18:53;;;;;;;1.23;0.70;;;28.40;99.90;;;;;;5117605;28;20475;-72
2022/08/09 10:21:22;;;;;;;1.27;0.70;;;28.50;99.90;;;;;;5117332;28;20891;-72
2022/08/09 10:23:50;;;;;;;1.23;0.70;;;28.70;99.90;;;;;;5118195;28;20444;-72
2022/08/09 10:26:20;;;;;;;0.80;0.70;;;28.90;99.90;;;;;;5117205;28;20448;-71
2022/08/09 10:28:47;;;;;;;0.60;0.60;;;29.10;99.90;;;;;;5098472;28;20782;-71
2022/08/09 10:31:15;;;;;;;0.70;0.60;;;29.30;99.90;;;;;;5104780;28;20476;-71
2022/08/09 10:33:42;;;;;;;0.70;0.63;;;29.70;99.90;;;;;;5112361;28;20560;-71
2022/08/09 10:36:11;;;;;;;1.00;0.67;;;29.60;99.90;;;;;;5113666;28;20478;-70
2022/08/09 10:38:40;;;;;;;0.90;0.70;;;29.90;99.90;;;;;;5116463;28;20551;-73
2022/08/09 10:41:07;;;;;;;0.70;0.67;;;30.00;99.90;;;;;;5118193;28;20540;-72
2022/08/09 10:43:37;;;;;;;0.60;0.50;;;30.20;99.90;;;;;;5117776;28;20441;-72
2022/08/09 10:46:28;;;;;;;0.67;0.50;;;30.20;99.90;;;;;;5107182;28;20516;-72
2022/08/09 10:49:05;;;;;;;0.70;0.60;;;30.50;99.90;;;;;;5113142;28;20823;-72
2022/08/09 10:51:42;;;;;;;0.80;0.70;;;30.70;99.90;;;;;;5116922;28;20535;-72
2022/08/09 10:54:11;;;;;;;0.73;0.60;;;30.60;99.90;;;;;;5116550;28;20519;-72
2022/08/09 10:56:40;;;;;;;0.70;0.50;;;30.60;99.90;;;;;;5117061;28;20436;-73
2022/08/09 10:59:30;;;;;;;1.30;0.70;;;30.70;99.90;;;;;;5113540;28;20530;-72
2022/08/09 11:01:59;;;;;;;0.90;0.60;;;30.50;99.90;;;;;;5110454;28;20483;-72
2022/08/09 11:04:27;;;;;;;0.87;0.60;;;30.50;99.90;;;;;;5111207;28;20482;-72
2022/08/09 11:07:26;;;;;;;0.73;0.60;;;30.80;99.90;;;;;;5116992;28;20839;-72
2022/08/09 11:09:53;;;;;;;1.10;0.60;;;31.00;99.90;;;;;;5116998;28;20449;-72
2022/08/09 11:12:23;;;;;;;1.03;0.60;;;31.00;99.90;;;;;;5116010;28;20226;-72
2022/08/09 11:14:54;;;;;;;0.97;0.50;;;31.00;99.90;;;;;;5117706;28;20812;-72
2022/08/09 11:17:57;;;;;;;0.70;0.60;;;30.90;99.90;;;;;;5117273;28;20456;-73
2022/08/09 11:20:41;;;;;;;3.60;0.50;;;31.10;99.90;;;;;;5112734;28;20448;-73
2022/08/09 11:23:09;;;;;;;1.13;0.70;;;31.20;99.90;;;;;;5116231;28;20437;-72
2022/08/09 11:25:41;;;;;;;0.60;0.50;;;31.60;99.90;;;;;;5111668;28;20446;-73
2022/08/09 11:28:34;;;;;;;3.07;0.60;;;32.00;99.90;;;;;;5116720;28;20820;-73
2022/08/09 11:31:23;;;;;;;2.80;0.60;;;32.40;99.90;;;;;;5116671;28;20448;-73
2022/08/09 11:33:55;;;;;;;0.73;0.50;;;32.10;99.90;;;;;;5108680;28;20505;-74
2022/08/09 11:36:26;;;;;;;0.97;0.50;;;32.20;99.90;;;;;;5117152;28;20445;-72
2022/08/09 11:39:04;;;;;;;0.90;0.50;;;32.40;99.90;;;;;;5115282;28;20540;-74
2022/08/09 11:41:31;;;;;;;0.70;0.50;;;32.60;99.90;;;;;;5111040;28;20528;-72
2022/08/09 11:43:58;;;;;;;0.60;0.50;;;32.50;99.90;;;;;;5114762;28;20477;-73
2022/08/09 11:46:27;;;;;;;2.60;0.60;;;32.20;99.90;;;;;;5115891;28;20445;-72
2022/08/09 11:48:57;;;;;;;0.60;0.50;;;32.10;99.90;;;;;;5115444;28;20481;-72
2022/08/09 11:51:27;;;;;;;0.53;0.40;;;32.30;99.90;;;;;;5116772;28;20536;-73
2022/08/09 11:54:15;;;;;;;0.60;0.50;;;32.70;99.90;;;;;;5115692;28;20516;-72
2022/08/09 11:56:43;;;;;;;0.70;0.50;;;32.60;99.90;;;;;;5114893;28;20441;-72
2022/08/09 11:59:13;;;;;;;0.50;0.40;;;31.80;99.90;;;;;;5116503;28;20452;-72
2022/08/09 12:01:42;;;;;;;0.60;0.50;;;31.60;99.90;;;;;;5115876;28;20480;-73
2022/08/09 12:04:13;;;;;;;0.60;0.50;;;31.90;99.90;;;;;;5115759;28;20444;-72
2022/08/09 12:06:48;;;;;;;0.70;0.53;;;31.50;99.90;;;;;;5115888;28;20440;-71
2022/08/09 12:09:15;;;;;;;0.60;0.50;;;31.80;99.90;;;;;;5115396;28;20452;-72
2022/08/09 12:11:43;;;;;;;0.60;0.60;;;32.00;99.90;;;;;;5113244;27;20863;-74
2022/08/09 12:14:12;;;;;;;0.73;0.50;;;32.10;99.90;;;;;;5131714;27;20574;-73
2022/08/09 12:16:40;;;;;;;0.60;0.60;;;32.50;99.90;;;;;;5121301;27;20563;-73
2022/08/09 12:19:10;;;;;;;0.60;0.50;;;32.40;99.90;;;;;;5116234;28;20525;-71
2022/08/09 12:21:41;;;;;;;0.67;0.50;;;32.40;99.90;;;;;;5115911;28;20448;-73
2022/08/09 12:24:10;;;;;;;0.70;0.50;;;32.60;99.90;;;;;;5116076;28;20489;-72
2022/08/09 12:26:43;;;;;;;0.60;0.50;;;32.70;99.90;;;;;;5130671;27;20732;-73
2022/08/09 12:29:19;;;;;;;0.93;0.50;;;32.70;99.90;;;;;;5136067;27;20531;-71
2022/08/09 12:31:48;;;;;;;0.50;0.50;;;32.90;99.90;;;;;;5136917;27;20888;-73
2022/08/09 12:34:15;;;;;;;0.57;0.50;;;32.90;99.90;;;;;;5136113;27;20488;-71
2022/08/09 12:36:58;;;;;;;0.70;0.67;;;32.70;99.90;;;;;;5136277;27;20523;-72
2022/08/09 12:39:25;;;;;;;1.10;0.50;;;32.70;99.90;;;;;;5136006;27;20452;-73
2022/08/09 12:41:52;;;;;;;0.60;0.50;;;32.40;99.90;;;;;;5136383;27;20497;-73
2022/08/09 12:44:19;;;;;;;0.90;0.60;;;32.60;99.90;;;;;;5136078;27;20505;-74
2022/08/09 12:46:48;;;;;;;0.60;0.50;;;32.60;99.90;;;;;;5134897;27;20447;-74
2022/08/09 12:49:17;;;;;;;5.20;0.73;;;32.20;99.90;;;;;;5133645;27;20653;-73
2022/08/09 12:51:55;;;;;;;0.60;0.50;;;32.30;99.90;;;;;;5134729;27;20479;-73
2022/08/09 12:54:23;;;;;;;0.60;0.50;;;32.30;99.90;;;;;;5134291;27;20949;-73
2022/08/09 12:56:51;;;;;;;1.83;0.50;;;32.50;99.90;;;;;;5134996;27;20487;-73
2022/08/09 12:59:19;;;;;;;0.60;0.50;;;32.90;99.90;;;;;;5134571;27;20455;-72
2022/08/09 13:01:48;;;;;;;0.60;0.50;;;33.10;99.90;;;;;;5134037;27;20562;-73
2022/08/09 13:04:17;;;;;;;4.10;0.60;;;33.30;99.90;;;;;;5135334;27;20475;-72